sensor_id;sensor_type;location;lat;lon;timestamp;P1;durP1;ratioP1;P2;durP2;ratioP2
8893;SDS011;4483;48.622;9.230;2023-05-27T00:01:33;4.93;;;3.20;;
8893;SDS011;4483;48.622;9.230;2023-05-27T00:04:00;7.67;;;3.30;;
8893;SDS011;4483;48.622;9.230;2023-05-27T00:06:27;6.17;;;3.20;;
8893;SDS011;4483;48.622;9.230;2023-05-27T00:08:53;7.27;;;3.40;;
8893;SDS011;4483;48.622;9.230;2023-05-27T00:11:21;10.00;;;3.67;;
8893;SDS011;4483;48.622;9.230;2023-05-27T00:13:48;7.27;;;3.43;;
8893;SDS011;4483;48.622;9.230;2023-05-27T00:16:15;8.43;;;3.53;;
8893;SDS011;4483;48.622;9.230;2023-05-27T00:18:42;6.30;;;3.20;;
8893;SDS011;4483;48.622;9.230;2023-05-27T00:21:09;7.93;;;3.10;;
8893;SDS011;4483;48.622;9.230;2023-05-27T00:23:35;6.43;;;3.30;;
8893;SDS011;4483;48.622;9.230;2023-05-27T00:26:02;6.47;;;3.20;;
8893;SDS011;4483;48.622;9.230;2023-05-27T00:28:30;7.40;;;3.30;;
8893;SDS011;4483;48.622;9.230;2023-05-27T00:30:57;8.27;;;3.40;;
8893;SDS011;4483;48.622;9.230;2023-05-27T00:33:23;5.83;;;3.40;;
8893;SDS011;4483;48.622;9.230;2023-05-27T00:35:50;10.93;;;3.53;;
8893;SDS011;4483;48.622;9.230;2023-05-27T00:38:16;6.73;;;3.40;;
8893;SDS011;4483;48.622;9.230;2023-05-27T00:40:43;6.20;;;2.93;;
8893;SDS011;4483;48.622;9.230;2023-05-27T00:43:10;7.67;;;3.63;;
8893;SDS011;4483;48.622;9.230;2023-05-27T00:45:38;7.30;;;3.37;;
8893;SDS011;4483;48.622;9.230;2023-05-27T00:48:05;8.33;;;3.23;;
8893;SDS011;4483;48.622;9.230;2023-05-27T00:50:31;8.10;;;3.80;;
8893;SDS011;4483;48.622;9.230;2023-05-27T00:52:58;6.73;;;3.80;;
8893;SDS011;4483;48.622;9.230;2023-05-27T00:55:25;8.77;;;3.27;;
8893;SDS011;4483;48.622;9.230;2023-05-27T00:57:52;4.37;;;3.30;;
8893;SDS011;4483;48.622;9.230;2023-05-27T01:00:19;7.53;;;3.23;;
8893;SDS011;4483;48.622;9.230;2023-05-27T01:02:47;9.73;;;3.67;;
8893;SDS011;4483;48.622;9.230;2023-05-27T01:05:16;4.60;;;3.17;;
8893;SDS011;4483;48.622;9.230;2023-05-27T01:07:45;7.00;;;2.93;;
8893;SDS011;4483;48.622;9.230;2023-05-27T01:10:21;14.10;;;3.43;;
8893;SDS011;4483;48.622;9.230;2023-05-27T01:12:54;5.77;;;3.10;;
8893;SDS011;4483;48.622;9.230;2023-05-27T01:15:25;9.27;;;3.47;;
8893;SDS011;4483;48.622;9.230;2023-05-27T01:17:56;6.17;;;2.90;;
8893;SDS011;4483;48.622;9.230;2023-05-27T01:20:26;4.60;;;3.23;;
8893;SDS011;4483;48.622;9.230;2023-05-27T01:22:56;8.57;;;3.33;;
8893;SDS011;4483;48.622;9.230;2023-05-27T01:25:24;7.17;;;3.30;;
8893;SDS011;4483;48.622;9.230;2023-05-27T01:27:51;6.50;;;3.20;;
8893;SDS011;4483;48.622;9.230;2023-05-27T01:30:18;6.13;;;2.80;;
8893;SDS011;4483;48.622;9.230;2023-05-27T01:32:46;7.73;;;3.10;;
8893;SDS011;4483;48.622;9.230;2023-05-27T01:35:20;9.90;;;3.33;;
8893;SDS011;4483;48.622;9.230;2023-05-27T01:37:50;5.93;;;3.13;;
8893;SDS011;4483;48.622;9.230;2023-05-27T01:40:20;7.00;;;3.13;;
8893;SDS011;4483;48.622;9.230;2023-05-27T01:42:48;7.60;;;3.00;;
8893;SDS011;4483;48.622;9.230;2023-05-27T01:45:15;10.80;;;2.97;;
8893;SDS011;4483;48.622;9.230;2023-05-27T01:47:42;9.23;;;3.57;;
8893;SDS011;4483;48.622;9.230;2023-05-27T01:50:09;11.37;;;3.17;;
8893;SDS011;4483;48.622;9.230;2023-05-27T01:52:36;6.97;;;3.13;;
8893;SDS011;4483;48.622;9.230;2023-05-27T01:55:02;8.60;;;3.10;;
8893;SDS011;4483;48.622;9.230;2023-05-27T01:57:32;5.03;;;2.90;;
8893;SDS011;4483;48.622;9.230;2023-05-27T01:59:58;6.63;;;3.37;;
8893;SDS011;4483;48.622;9.230;2023-05-27T02:02:25;4.53;;;2.83;;
8893;SDS011;4483;48.622;9.230;2023-05-27T02:04:52;7.47;;;3.33;;
8893;SDS011;4483;48.622;9.230;2023-05-27T02:07:18;8.47;;;3.50;;
8893;SDS011;4483;48.622;9.230;2023-05-27T02:09:45;7.17;;;3.23;;
8893;SDS011;4483;48.622;9.230;2023-05-27T02:12:12;8.60;;;3.00;;
8893;SDS011;4483;48.622;9.230;2023-05-27T02:14:40;8.87;;;3.30;;
8893;SDS011;4483;48.622;9.230;2023-05-27T02:17:07;7.67;;;2.97;;
8893;SDS011;4483;48.622;9.230;2023-05-27T02:19:34;8.00;;;3.60;;
8893;SDS011;4483;48.622;9.230;2023-05-27T02:22:00;4.30;;;2.77;;
8893;SDS011;4483;48.622;9.230;2023-05-27T02:24:27;9.80;;;3.60;;
8893;SDS011;4483;48.622;9.230;2023-05-27T02:26:54;8.57;;;3.17;;
8893;SDS011;4483;48.622;9.230;2023-05-27T02:29:20;7.30;;;3.00;;
8893;SDS011;4483;48.622;9.230;2023-05-27T02:31:48;6.87;;;3.30;;
8893;SDS011;4483;48.622;9.230;2023-05-27T02:34:15;6.47;;;2.97;;
8893;SDS011;4483;48.622;9.230;2023-05-27T02:36:41;7.77;;;3.67;;
8893;SDS011;4483;48.622;9.230;2023-05-27T02:39:08;4.63;;;3.17;;
8893;SDS011;4483;48.622;9.230;2023-05-27T02:41:35;8.40;;;3.73;;
8893;SDS011;4483;48.622;9.230;2023-05-27T02:44:02;6.87;;;3.03;;
8893;SDS011;4483;48.622;9.230;2023-05-27T02:46:28;4.00;;;3.00;;
8893;SDS011;4483;48.622;9.230;2023-05-27T02:48:56;8.10;;;3.03;;
8893;SDS011;4483;48.622;9.230;2023-05-27T02:51:23;6.37;;;3.23;;
8893;SDS011;4483;48.622;9.230;2023-05-27T02:53:50;11.17;;;3.23;;
8893;SDS011;4483;48.622;9.230;2023-05-27T02:56:16;6.30;;;2.73;;
8893;SDS011;4483;48.622;9.230;2023-05-27T02:58:43;8.80;;;3.30;;
8893;SDS011;4483;48.622;9.230;2023-05-27T03:01:10;8.03;;;3.10;;
8893;SDS011;4483;48.622;9.230;2023-05-27T03:03:36;6.63;;;3.03;;
8893;SDS011;4483;48.622;9.230;2023-05-27T03:06:04;7.57;;;3.30;;
8893;SDS011;4483;48.622;9.230;2023-05-27T03:08:31;5.43;;;3.00;;
8893;SDS011;4483;48.622;9.230;2023-05-27T03:10:58;5.57;;;2.90;;
8893;SDS011;4483;48.622;9.230;2023-05-27T03:13:24;13.67;;;3.10;;
8893;SDS011;4483;48.622;9.230;2023-05-27T03:15:51;6.77;;;3.30;;
8893;SDS011;4483;48.622;9.230;2023-05-27T03:18:19;5.93;;;3.37;;
8893;SDS011;4483;48.622;9.230;2023-05-27T03:20:46;3.67;;;2.87;;
8893;SDS011;4483;48.622;9.230;2023-05-27T03:23:14;7.57;;;2.70;;
8893;SDS011;4483;48.622;9.230;2023-05-27T03:25:41;6.33;;;3.00;;
8893;SDS011;4483;48.622;9.230;2023-05-27T03:28:07;6.60;;;3.00;;
8893;SDS011;4483;48.622;9.230;2023-05-27T03:30:34;8.37;;;3.10;;
8893;SDS011;4483;48.622;9.230;2023-05-27T03:33:01;6.50;;;3.60;;
8893;SDS011;4483;48.622;9.230;2023-05-27T03:35:28;7.47;;;3.20;;
8893;SDS011;4483;48.622;9.230;2023-05-27T03:37:55;6.30;;;3.10;;
8893;SDS011;4483;48.622;9.230;2023-05-27T03:40:23;7.03;;;3.20;;
8893;SDS011;4483;48.622;9.230;2023-05-27T03:42:50;5.13;;;2.93;;
8893;SDS011;4483;48.622;9.230;2023-05-27T03:45:17;6.03;;;3.10;;
8893;SDS011;4483;48.622;9.230;2023-05-27T03:47:44;10.43;;;3.40;;
8893;SDS011;4483;48.622;9.230;2023-05-27T03:50:10;6.20;;;3.40;;
8893;SDS011;4483;48.622;9.230;2023-05-27T03:52:37;5.87;;;3.30;;
8893;SDS011;4483;48.622;9.230;2023-05-27T03:55:04;4.47;;;3.43;;
8893;SDS011;4483;48.622;9.230;2023-05-27T03:57:32;4.53;;;2.70;;
8893;SDS011;4483;48.622;9.230;2023-05-27T03:59:59;5.47;;;3.30;;
8893;SDS011;4483;48.622;9.230;2023-05-27T04:02:26;5.47;;;3.20;;
8893;SDS011;4483;48.622;9.230;2023-05-27T04:04:52;4.13;;;3.53;;
8893;SDS011;4483;48.622;9.230;2023-05-27T04:07:19;5.40;;;3.50;;
8893;SDS011;4483;48.622;9.230;2023-05-27T04:09:51;8.47;;;3.60;;
8893;SDS011;4483;48.622;9.230;2023-05-27T04:12:18;5.43;;;3.40;;
8893;SDS011;4483;48.622;9.230;2023-05-27T04:14:46;5.53;;;3.40;;
8893;SDS011;4483;48.622;9.230;2023-05-27T04:17:13;3.37;;;3.07;;
8893;SDS011;4483;48.622;9.230;2023-05-27T04:19:40;6.67;;;3.67;;
8893;SDS011;4483;48.622;9.230;2023-05-27T04:22:06;5.53;;;3.20;;
8893;SDS011;4483;48.622;9.230;2023-05-27T04:24:33;12.50;;;3.50;;
8893;SDS011;4483;48.622;9.230;2023-05-27T04:27:00;6.87;;;3.80;;
8893;SDS011;4483;48.622;9.230;2023-05-27T04:29:27;11.03;;;3.40;;
8893;SDS011;4483;48.622;9.230;2023-05-27T04:31:58;5.93;;;3.40;;
8893;SDS011;4483;48.622;9.230;2023-05-27T04:34:25;5.43;;;3.47;;
8893;SDS011;4483;48.622;9.230;2023-05-27T04:36:52;7.57;;;3.13;;
8893;SDS011;4483;48.622;9.230;2023-05-27T04:39:19;7.77;;;3.00;;
8893;SDS011;4483;48.622;9.230;2023-05-27T04:41:46;7.80;;;3.40;;
8893;SDS011;4483;48.622;9.230;2023-05-27T04:44:12;4.63;;;3.00;;
8893;SDS011;4483;48.622;9.230;2023-05-27T04:46:39;6.20;;;3.20;;
8893;SDS011;4483;48.622;9.230;2023-05-27T04:49:07;6.20;;;3.80;;
8893;SDS011;4483;48.622;9.230;2023-05-27T04:51:34;8.10;;;3.40;;
8893;SDS011;4483;48.622;9.230;2023-05-27T04:54:02;9.03;;;3.50;;
8893;SDS011;4483;48.622;9.230;2023-05-27T04:56:30;9.53;;;3.40;;
8893;SDS011;4483;48.622;9.230;2023-05-27T04:58:57;8.63;;;3.30;;
8893;SDS011;4483;48.622;9.230;2023-05-27T05:01:24;6.93;;;3.53;;
8893;SDS011;4483;48.622;9.230;2023-05-27T05:03:52;6.97;;;3.70;;
8893;SDS011;4483;48.622;9.230;2023-05-27T05:06:37;9.57;;;3.27;;
8893;SDS011;4483;48.622;9.230;2023-05-27T05:09:04;9.47;;;3.53;;
8893;SDS011;4483;48.622;9.230;2023-05-27T05:11:32;5.23;;;3.17;;
8893;SDS011;4483;48.622;9.230;2023-05-27T05:13:59;6.90;;;3.20;;
8893;SDS011;4483;48.622;9.230;2023-05-27T05:16:25;6.97;;;3.67;;
8893;SDS011;4483;48.622;9.230;2023-05-27T05:18:52;7.63;;;3.60;;
8893;SDS011;4483;48.622;9.230;2023-05-27T05:21:18;8.60;;;3.33;;
8893;SDS011;4483;48.622;9.230;2023-05-27T05:23:46;6.50;;;3.47;;
8893;SDS011;4483;48.622;9.230;2023-05-27T05:26:13;5.40;;;3.30;;
8893;SDS011;4483;48.622;9.230;2023-05-27T05:28:40;6.63;;;3.47;;
8893;SDS011;4483;48.622;9.230;2023-05-27T05:31:06;6.47;;;3.40;;
8893;SDS011;4483;48.622;9.230;2023-05-27T05:33:33;7.03;;;4.20;;
8893;SDS011;4483;48.622;9.230;2023-05-27T05:36:00;7.37;;;3.50;;
8893;SDS011;4483;48.622;9.230;2023-05-27T05:38:27;5.43;;;3.17;;
8893;SDS011;4483;48.622;9.230;2023-05-27T05:40:56;6.93;;;3.60;;
8893;SDS011;4483;48.622;9.230;2023-05-27T05:43:23;11.97;;;4.03;;
8893;SDS011;4483;48.622;9.230;2023-05-27T05:45:51;7.43;;;3.27;;
8893;SDS011;4483;48.622;9.230;2023-05-27T05:48:17;12.30;;;4.32;;
8893;SDS011;4483;48.622;9.230;2023-05-27T05:50:44;7.77;;;3.67;;
8893;SDS011;4483;48.622;9.230;2023-05-27T05:53:11;13.37;;;4.47;;
8893;SDS011;4483;48.622;9.230;2023-05-27T05:55:37;9.57;;;3.57;;
8893;SDS011;4483;48.622;9.230;2023-05-27T05:58:05;11.17;;;3.83;;
8893;SDS011;4483;48.622;9.230;2023-05-27T06:00:32;7.73;;;3.63;;
8893;SDS011;4483;48.622;9.230;2023-05-27T06:02:59;10.10;;;3.60;;
8893;SDS011;4483;48.622;9.230;2023-05-27T06:05:25;10.37;;;3.60;;
8893;SDS011;4483;48.622;9.230;2023-05-27T06:07:53;10.67;;;3.63;;
8893;SDS011;4483;48.622;9.230;2023-05-27T06:10:19;12.93;;;4.17;;
8893;SDS011;4483;48.622;9.230;2023-05-27T06:12:46;7.87;;;3.37;;
8893;SDS011;4483;48.622;9.230;2023-05-27T06:15:14;10.97;;;3.80;;
8893;SDS011;4483;48.622;9.230;2023-05-27T06:17:41;14.17;;;3.67;;
8893;SDS011;4483;48.622;9.230;2023-05-27T06:20:08;8.13;;;3.53;;
8893;SDS011;4483;48.622;9.230;2023-05-27T06:22:35;8.90;;;3.63;;
8893;SDS011;4483;48.622;9.230;2023-05-27T06:25:01;10.50;;;3.80;;
8893;SDS011;4483;48.622;9.230;2023-05-27T06:27:28;7.63;;;3.40;;
8893;SDS011;4483;48.622;9.230;2023-05-27T06:29:55;9.40;;;3.50;;
8893;SDS011;4483;48.622;9.230;2023-05-27T06:32:23;12.83;;;4.23;;
8893;SDS011;4483;48.622;9.230;2023-05-27T06:34:50;8.83;;;3.53;;
8893;SDS011;4483;48.622;9.230;2023-05-27T06:37:17;6.47;;;3.38;;
8893;SDS011;4483;48.622;9.230;2023-05-27T06:39:43;9.32;;;3.25;;
8893;SDS011;4483;48.622;9.230;2023-05-27T06:42:10;9.60;;;3.70;;
8893;SDS011;4483;48.622;9.230;2023-05-27T06:44:37;7.57;;;3.65;;
8893;SDS011;4483;48.622;9.230;2023-05-27T06:47:04;6.53;;;3.50;;
8893;SDS011;4483;48.622;9.230;2023-05-27T06:49:32;9.57;;;3.80;;
8893;SDS011;4483;48.622;9.230;2023-05-27T06:51:58;10.55;;;3.70;;
8893;SDS011;4483;48.622;9.230;2023-05-27T06:54:25;11.90;;;4.80;;
8893;SDS011;4483;48.622;9.230;2023-05-27T06:56:52;8.82;;;3.90;;
8893;SDS011;4483;48.622;9.230;2023-05-27T06:59:18;9.23;;;3.60;;
8893;SDS011;4483;48.622;9.230;2023-05-27T07:01:45;8.60;;;3.67;;
8893;SDS011;4483;48.622;9.230;2023-05-27T07:04:11;7.40;;;3.53;;
8893;SDS011;4483;48.622;9.230;2023-05-27T07:06:39;6.20;;;3.22;;
8893;SDS011;4483;48.622;9.230;2023-05-27T07:09:06;8.30;;;4.05;;
8893;SDS011;4483;48.622;9.230;2023-05-27T07:11:33;10.35;;;3.78;;
8893;SDS011;4483;48.622;9.230;2023-05-27T07:13:59;8.40;;;3.92;;
8893;SDS011;4483;48.622;9.230;2023-05-27T07:16:26;10.55;;;4.20;;
8893;SDS011;4483;48.622;9.230;2023-05-27T07:18:53;7.72;;;3.50;;
8893;SDS011;4483;48.622;9.230;2023-05-27T07:21:19;9.85;;;4.18;;
8893;SDS011;4483;48.622;9.230;2023-05-27T07:23:47;13.48;;;3.95;;
8893;SDS011;4483;48.622;9.230;2023-05-27T07:26:14;8.10;;;3.58;;
8893;SDS011;4483;48.622;9.230;2023-05-27T07:28:40;8.82;;;3.80;;
8893;SDS011;4483;48.622;9.230;2023-05-27T07:31:07;7.45;;;3.53;;
8893;SDS011;4483;48.622;9.230;2023-05-27T07:33:33;10.00;;;3.75;;
8893;SDS011;4483;48.622;9.230;2023-05-27T07:36:00;8.40;;;3.58;;
8893;SDS011;4483;48.622;9.230;2023-05-27T07:38:26;10.45;;;3.65;;
8893;SDS011;4483;48.622;9.230;2023-05-27T07:40:54;9.25;;;4.30;;
8893;SDS011;4483;48.622;9.230;2023-05-27T07:43:21;6.90;;;3.55;;
8893;SDS011;4483;48.622;9.230;2023-05-27T07:45:48;10.65;;;3.65;;
8893;SDS011;4483;48.622;9.230;2023-05-27T07:48:14;12.40;;;3.88;;
8893;SDS011;4483;48.622;9.230;2023-05-27T07:50:41;6.68;;;3.60;;
8893;SDS011;4483;48.622;9.230;2023-05-27T07:53:08;7.18;;;3.65;;
8893;SDS011;4483;48.622;9.230;2023-05-27T07:55:34;6.93;;;3.97;;
8893;SDS011;4483;48.622;9.230;2023-05-27T07:58:02;8.93;;;3.80;;
8893;SDS011;4483;48.622;9.230;2023-05-27T08:00:29;9.10;;;4.45;;
8893;SDS011;4483;48.622;9.230;2023-05-27T08:02:56;10.38;;;3.72;;
8893;SDS011;4483;48.622;9.230;2023-05-27T08:05:23;7.63;;;3.75;;
8893;SDS011;4483;48.622;9.230;2023-05-27T08:07:50;11.93;;;4.35;;
8893;SDS011;4483;48.622;9.230;2023-05-27T08:10:16;7.38;;;3.70;;
8893;SDS011;4483;48.622;9.230;2023-05-27T08:12:43;10.27;;;3.85;;
8893;SDS011;4483;48.622;9.230;2023-05-27T08:15:11;6.55;;;3.85;;
8893;SDS011;4483;48.622;9.230;2023-05-27T08:17:38;7.78;;;4.47;;
8893;SDS011;4483;48.622;9.230;2023-05-27T08:20:05;9.75;;;4.15;;
8893;SDS011;4483;48.622;9.230;2023-05-27T08:22:33;4.80;;;3.47;;
8893;SDS011;4483;48.622;9.230;2023-05-27T08:24:59;5.32;;;3.67;;
8893;SDS011;4483;48.622;9.230;2023-05-27T08:27:42;10.10;;;4.53;;
8893;SDS011;4483;48.622;9.230;2023-05-27T08:30:11;6.63;;;3.80;;
8893;SDS011;4483;48.622;9.230;2023-05-27T08:32:38;11.40;;;4.53;;
8893;SDS011;4483;48.622;9.230;2023-05-27T08:35:04;9.23;;;4.22;;
8893;SDS011;4483;48.622;9.230;2023-05-27T08:37:31;9.25;;;4.35;;
8893;SDS011;4483;48.622;9.230;2023-05-27T08:39:58;7.95;;;4.18;;
8893;SDS011;4483;48.622;9.230;2023-05-27T08:42:24;8.90;;;4.20;;
8893;SDS011;4483;48.622;9.230;2023-05-27T08:44:51;9.32;;;4.28;;
8893;SDS011;4483;48.622;9.230;2023-05-27T08:47:19;7.88;;;4.00;;
8893;SDS011;4483;48.622;9.230;2023-05-27T08:49:46;8.77;;;4.00;;
8893;SDS011;4483;48.622;9.230;2023-05-27T08:52:13;7.43;;;4.18;;
8893;SDS011;4483;48.622;9.230;2023-05-27T08:54:44;6.75;;;4.32;;
8893;SDS011;4483;48.622;9.230;2023-05-27T08:57:12;9.25;;;4.40;;
8893;SDS011;4483;48.622;9.230;2023-05-27T08:59:39;9.32;;;4.20;;
8893;SDS011;4483;48.622;9.230;2023-05-27T09:02:07;7.13;;;4.10;;
8893;SDS011;4483;48.622;9.230;2023-05-27T09:04:39;9.57;;;4.35;;
8893;SDS011;4483;48.622;9.230;2023-05-27T09:07:06;6.15;;;3.50;;
8893;SDS011;4483;48.622;9.230;2023-05-27T09:09:33;10.27;;;4.45;;
8893;SDS011;4483;48.622;9.230;2023-05-27T09:11:59;9.48;;;4.30;;
8893;SDS011;4483;48.622;9.230;2023-05-27T09:14:27;8.52;;;4.00;;
8893;SDS011;4483;48.622;9.230;2023-05-27T09:16:54;8.52;;;4.00;;
8893;SDS011;4483;48.622;9.230;2023-05-27T09:19:21;9.13;;;3.75;;
8893;SDS011;4483;48.622;9.230;2023-05-27T09:21:50;8.57;;;4.13;;
8893;SDS011;4483;48.622;9.230;2023-05-27T09:24:18;8.10;;;4.22;;
8893;SDS011;4483;48.622;9.230;2023-05-27T09:26:45;8.05;;;3.58;;
8893;SDS011;4483;48.622;9.230;2023-05-27T09:29:11;7.22;;;3.65;;
8893;SDS011;4483;48.622;9.230;2023-05-27T09:31:38;7.15;;;4.05;;
8893;SDS011;4483;48.622;9.230;2023-05-27T09:34:09;8.07;;;3.92;;
8893;SDS011;4483;48.622;9.230;2023-05-27T09:36:41;9.90;;;4.30;;
8893;SDS011;4483;48.622;9.230;2023-05-27T09:39:11;8.80;;;3.90;;
8893;SDS011;4483;48.622;9.230;2023-05-27T09:41:38;8.98;;;4.45;;
8893;SDS011;4483;48.622;9.230;2023-05-27T09:44:05;7.15;;;3.70;;
8893;SDS011;4483;48.622;9.230;2023-05-27T09:46:32;6.18;;;4.05;;
8893;SDS011;4483;48.622;9.230;2023-05-27T09:49:00;5.25;;;3.53;;
8893;SDS011;4483;48.622;9.230;2023-05-27T09:51:28;7.80;;;4.28;;
8893;SDS011;4483;48.622;9.230;2023-05-27T09:53:57;9.57;;;4.10;;
8893;SDS011;4483;48.622;9.230;2023-05-27T09:56:26;8.73;;;3.72;;
8893;SDS011;4483;48.622;9.230;2023-05-27T09:58:54;10.27;;;3.80;;
8893;SDS011;4483;48.622;9.230;2023-05-27T10:01:21;7.80;;;4.20;;
8893;SDS011;4483;48.622;9.230;2023-05-27T10:03:51;8.45;;;4.03;;
8893;SDS011;4483;48.622;9.230;2023-05-27T10:06:18;8.13;;;4.32;;
8893;SDS011;4483;48.622;9.230;2023-05-27T10:08:45;7.43;;;4.20;;
8893;SDS011;4483;48.622;9.230;2023-05-27T10:11:12;7.03;;;4.00;;
8893;SDS011;4483;48.622;9.230;2023-05-27T10:13:40;6.05;;;3.97;;
8893;SDS011;4483;48.622;9.230;2023-05-27T10:16:17;6.72;;;3.97;;
8893;SDS011;4483;48.622;9.230;2023-05-27T10:18:45;6.13;;;3.90;;
8893;SDS011;4483;48.622;9.230;2023-05-27T10:21:18;10.60;;;4.25;;
8893;SDS011;4483;48.622;9.230;2023-05-27T10:23:51;6.80;;;4.13;;
8893;SDS011;4483;48.622;9.230;2023-05-27T10:26:19;9.57;;;3.83;;
8893;SDS011;4483;48.622;9.230;2023-05-27T10:28:47;7.72;;;4.60;;
8893;SDS011;4483;48.622;9.230;2023-05-27T10:31:14;9.43;;;4.18;;
8893;SDS011;4483;48.622;9.230;2023-05-27T10:33:43;6.95;;;4.00;;
8893;SDS011;4483;48.622;9.230;2023-05-27T10:36:11;6.47;;;4.45;;
8893;SDS011;4483;48.622;9.230;2023-05-27T10:38:40;6.25;;;4.25;;
8893;SDS011;4483;48.622;9.230;2023-05-27T10:41:07;8.02;;;3.70;;
8893;SDS011;4483;48.622;9.230;2023-05-27T10:43:35;6.78;;;3.83;;
8893;SDS011;4483;48.622;9.230;2023-05-27T10:46:04;7.43;;;4.30;;
8893;SDS011;4483;48.622;9.230;2023-05-27T10:48:32;7.22;;;4.30;;
8893;SDS011;4483;48.622;9.230;2023-05-27T10:50:59;6.20;;;4.57;;
8893;SDS011;4483;48.622;9.230;2023-05-27T10:53:26;6.68;;;4.10;;
8893;SDS011;4483;48.622;9.230;2023-05-27T10:55:54;7.93;;;4.43;;
8893;SDS011;4483;48.622;9.230;2023-05-27T10:58:24;5.97;;;4.28;;
8893;SDS011;4483;48.622;9.230;2023-05-27T11:00:51;7.13;;;4.28;;
8893;SDS011;4483;48.622;9.230;2023-05-27T11:03:21;6.95;;;3.95;;
8893;SDS011;4483;48.622;9.230;2023-05-27T11:06:01;7.85;;;4.25;;
8893;SDS011;4483;48.622;9.230;2023-05-27T11:08:30;5.60;;;3.97;;
8893;SDS011;4483;48.622;9.230;2023-05-27T11:10:58;4.75;;;4.15;;
8893;SDS011;4483;48.622;9.230;2023-05-27T11:13:29;9.30;;;4.55;;
8893;SDS011;4483;48.622;9.230;2023-05-27T11:15:56;7.20;;;4.15;;
8893;SDS011;4483;48.622;9.230;2023-05-27T11:18:32;9.85;;;4.30;;
8893;SDS011;4483;48.622;9.230;2023-05-27T11:21:00;8.80;;;4.07;;
8893;SDS011;4483;48.622;9.230;2023-05-27T11:23:33;6.53;;;4.38;;
8893;SDS011;4483;48.622;9.230;2023-05-27T11:26:00;9.98;;;4.80;;
8893;SDS011;4483;48.622;9.230;2023-05-27T11:28:27;5.53;;;3.85;;
8893;SDS011;4483;48.622;9.230;2023-05-27T11:30:57;8.60;;;4.63;;
8893;SDS011;4483;48.622;9.230;2023-05-27T11:33:30;6.68;;;4.15;;
8893;SDS011;4483;48.622;9.230;2023-05-27T11:36:02;6.57;;;4.07;;
8893;SDS011;4483;48.622;9.230;2023-05-27T11:38:30;6.70;;;4.78;;
8893;SDS011;4483;48.622;9.230;2023-05-27T11:41:06;4.72;;;4.18;;
8893;SDS011;4483;48.622;9.230;2023-05-27T11:43:33;7.68;;;4.20;;
8893;SDS011;4483;48.622;9.230;2023-05-27T11:46:02;6.18;;;4.05;;
8893;SDS011;4483;48.622;9.230;2023-05-27T11:48:30;9.10;;;4.68;;
8893;SDS011;4483;48.622;9.230;2023-05-27T11:50:57;5.50;;;4.38;;
8893;SDS011;4483;48.622;9.230;2023-05-27T11:53:26;8.88;;;4.30;;
8893;SDS011;4483;48.622;9.230;2023-05-27T11:55:53;9.43;;;4.50;;
8893;SDS011;4483;48.622;9.230;2023-05-27T11:58:20;6.93;;;4.13;;
8893;SDS011;4483;48.622;9.230;2023-05-27T12:00:47;6.80;;;4.45;;
8893;SDS011;4483;48.622;9.230;2023-05-27T12:03:13;7.00;;;4.22;;
8893;SDS011;4483;48.622;9.230;2023-05-27T12:05:41;8.07;;;4.53;;
8893;SDS011;4483;48.622;9.230;2023-05-27T12:08:08;8.13;;;4.75;;
8893;SDS011;4483;48.622;9.230;2023-05-27T12:10:35;5.20;;;3.92;;
8893;SDS011;4483;48.622;9.230;2023-05-27T12:13:04;6.10;;;4.07;;
8893;SDS011;4483;48.622;9.230;2023-05-27T12:15:31;6.45;;;4.35;;
8893;SDS011;4483;48.622;9.230;2023-05-27T12:17:58;7.22;;;4.55;;
8893;SDS011;4483;48.622;9.230;2023-05-27T12:20:25;9.55;;;4.40;;
8893;SDS011;4483;48.622;9.230;2023-05-27T12:22:55;7.75;;;4.32;;
8893;SDS011;4483;48.622;9.230;2023-05-27T12:25:21;8.57;;;4.30;;
8893;SDS011;4483;48.622;9.230;2023-05-27T12:27:48;6.53;;;4.25;;
8893;SDS011;4483;48.622;9.230;2023-05-27T12:30:14;6.82;;;4.25;;
8893;SDS011;4483;48.622;9.230;2023-05-27T12:32:41;7.13;;;4.05;;
8893;SDS011;4483;48.622;9.230;2023-05-27T12:35:08;7.28;;;4.82;;
8893;SDS011;4483;48.622;9.230;2023-05-27T12:37:35;7.50;;;4.35;;
8893;SDS011;4483;48.622;9.230;2023-05-27T12:40:03;6.10;;;4.50;;
8893;SDS011;4483;48.622;9.230;2023-05-27T12:42:30;5.32;;;3.97;;
8893;SDS011;4483;48.622;9.230;2023-05-27T12:44:57;5.25;;;4.30;;
8893;SDS011;4483;48.622;9.230;2023-05-27T12:47:24;7.65;;;4.20;;
8893;SDS011;4483;48.622;9.230;2023-05-27T12:49:51;5.95;;;3.97;;
8893;SDS011;4483;48.622;9.230;2023-05-27T12:52:17;7.80;;;4.35;;
8893;SDS011;4483;48.622;9.230;2023-05-27T12:54:44;5.97;;;4.75;;
8893;SDS011;4483;48.622;9.230;2023-05-27T12:57:12;7.63;;;3.92;;
8893;SDS011;4483;48.622;9.230;2023-05-27T12:59:39;4.85;;;4.38;;
8893;SDS011;4483;48.622;9.230;2023-05-27T13:02:07;5.18;;;4.03;;
8893;SDS011;4483;48.622;9.230;2023-05-27T13:04:34;6.15;;;4.40;;
8893;SDS011;4483;48.622;9.230;2023-05-27T13:07:00;6.55;;;4.57;;
8893;SDS011;4483;48.622;9.230;2023-05-27T13:09:27;6.05;;;4.38;;
8893;SDS011;4483;48.622;9.230;2023-05-27T13:11:54;4.72;;;3.85;;
8893;SDS011;4483;48.622;9.230;2023-05-27T13:14:22;7.75;;;4.75;;
8893;SDS011;4483;48.622;9.230;2023-05-27T13:16:49;8.13;;;4.95;;
8893;SDS011;4483;48.622;9.230;2023-05-27T13:19:15;8.45;;;4.53;;
8893;SDS011;4483;48.622;9.230;2023-05-27T13:21:42;6.80;;;4.50;;
8893;SDS011;4483;48.622;9.230;2023-05-27T13:24:08;7.45;;;4.97;;
8893;SDS011;4483;48.622;9.230;2023-05-27T13:26:35;7.40;;;4.72;;
8893;SDS011;4483;48.622;9.230;2023-05-27T13:29:01;9.07;;;5.13;;
8893;SDS011;4483;48.622;9.230;2023-05-27T13:31:30;8.38;;;4.55;;
8893;SDS011;4483;48.622;9.230;2023-05-27T13:33:57;7.95;;;4.72;;
8893;SDS011;4483;48.622;9.230;2023-05-27T13:36:23;8.35;;;4.88;;
8893;SDS011;4483;48.622;9.230;2023-05-27T13:38:50;7.80;;;4.60;;
8893;SDS011;4483;48.622;9.230;2023-05-27T13:41:17;9.02;;;4.10;;
8893;SDS011;4483;48.622;9.230;2023-05-27T13:43:43;9.60;;;4.88;;
8893;SDS011;4483;48.622;9.230;2023-05-27T13:46:10;7.63;;;4.57;;
8893;SDS011;4483;48.622;9.230;2023-05-27T13:48:38;7.72;;;4.40;;
8893;SDS011;4483;48.622;9.230;2023-05-27T13:51:04;6.97;;;4.72;;
8893;SDS011;4483;48.622;9.230;2023-05-27T13:53:31;10.48;;;4.90;;
8893;SDS011;4483;48.622;9.230;2023-05-27T13:55:58;8.55;;;4.53;;
8893;SDS011;4483;48.622;9.230;2023-05-27T13:58:25;7.00;;;4.53;;
8893;SDS011;4483;48.622;9.230;2023-05-27T14:00:53;5.55;;;4.35;;
8893;SDS011;4483;48.622;9.230;2023-05-27T14:03:20;10.85;;;4.85;;
8893;SDS011;4483;48.622;9.230;2023-05-27T14:05:49;8.52;;;4.75;;
8893;SDS011;4483;48.622;9.230;2023-05-27T14:08:16;12.32;;;4.78;;
8893;SDS011;4483;48.622;9.230;2023-05-27T14:10:43;7.32;;;4.35;;
8893;SDS011;4483;48.622;9.230;2023-05-27T14:13:09;6.38;;;4.30;;
8893;SDS011;4483;48.622;9.230;2023-05-27T14:15:36;11.32;;;4.50;;
8893;SDS011;4483;48.622;9.230;2023-05-27T14:18:03;8.45;;;4.57;;
8893;SDS011;4483;48.622;9.230;2023-05-27T14:20:30;5.78;;;4.05;;
8893;SDS011;4483;48.622;9.230;2023-05-27T14:22:58;9.48;;;4.68;;
8893;SDS011;4483;48.622;9.230;2023-05-27T14:25:27;8.88;;;5.07;;
8893;SDS011;4483;48.622;9.230;2023-05-27T14:27:53;5.63;;;4.57;;
8893;SDS011;4483;48.622;9.230;2023-05-27T14:30:21;5.53;;;4.10;;
8893;SDS011;4483;48.622;9.230;2023-05-27T14:32:49;6.75;;;4.40;;
8893;SDS011;4483;48.622;9.230;2023-05-27T14:35:16;9.02;;;4.45;;
8893;SDS011;4483;48.622;9.230;2023-05-27T14:37:42;7.45;;;4.25;;
8893;SDS011;4483;48.622;9.230;2023-05-27T14:40:11;6.05;;;4.25;;
8893;SDS011;4483;48.622;9.230;2023-05-27T14:42:37;8.65;;;4.35;;
8893;SDS011;4483;48.622;9.230;2023-05-27T14:45:04;4.25;;;3.63;;
8893;SDS011;4483;48.622;9.230;2023-05-27T14:47:32;6.00;;;4.13;;
8893;SDS011;4483;48.622;9.230;2023-05-27T14:49:58;4.88;;;4.00;;
8893;SDS011;4483;48.622;9.230;2023-05-27T14:52:25;6.40;;;3.90;;
8893;SDS011;4483;48.622;9.230;2023-05-27T14:54:51;8.23;;;4.05;;
8893;SDS011;4483;48.622;9.230;2023-05-27T14:57:19;6.20;;;3.92;;
8893;SDS011;4483;48.622;9.230;2023-05-27T14:59:46;5.95;;;4.40;;
8893;SDS011;4483;48.622;9.230;2023-05-27T15:02:12;5.82;;;3.50;;
8893;SDS011;4483;48.622;9.230;2023-05-27T15:04:39;5.05;;;3.70;;
8893;SDS011;4483;48.622;9.230;2023-05-27T15:07:06;7.35;;;3.40;;
8893;SDS011;4483;48.622;9.230;2023-05-27T15:09:33;5.10;;;3.55;;
8893;SDS011;4483;48.622;9.230;2023-05-27T15:11:59;6.68;;;3.80;;
8893;SDS011;4483;48.622;9.230;2023-05-27T15:14:27;7.45;;;3.60;;
8893;SDS011;4483;48.622;9.230;2023-05-27T15:16:54;7.40;;;3.75;;